Time;durP1;ratioP1;P1;durP2;ratioP2;P2;SDS_P1;SDS_P2;PMS_P1;PMS_P2;Temp;Humidity;BMP_temperature;BMP_pressure;BME280_temperature;BME280_humidity;BME280_pressure;Samples;Min_cycle;Max_cycle;Signal;HPM_P1;HPM_P2
2022/05/22 00:02:06;;;;;;;0.73;0.73;;;8.80;99.90;;;;;;5053529;28;20072;-78
2022/05/22 00:04:32;;;;;;;0.50;0.50;;;8.80;99.90;;;;;;5059173;28;20033;-79
2022/05/22 00:06:58;;;;;;;;;;;8.80;99.90;;;;;;5063393;28;20037;-81
2022/05/22 00:09:24;;;;;;;0.47;0.47;;;8.70;99.90;;;;;;5027116;28;20402;-80
2022/05/22 00:11:50;;;;;;;0.40;0.40;;;8.70;99.90;;;;;;5045929;28;20049;-80
2022/05/22 00:14:16;;;;;;;;;;;8.70;99.90;;;;;;5049525;28;20134;-78
2022/05/22 00:16:46;;;;;;;0.55;0.55;;;8.70;99.90;;;;;;5031837;28;20273;-77
2022/05/22 00:19:25;;;;;;;0.60;0.60;;;8.60;99.90;;;;;;5057012;28;20431;-83
2022/05/22 00:21:52;;;;;;;0.55;0.55;;;8.60;99.90;;;;;;5061000;28;20032;-81
2022/05/22 00:24:20;;;;;;;0.57;0.57;;;8.50;99.90;;;;;;5061852;28;20101;-78
2022/05/22 00:26:46;;;;;;;0.50;0.50;;;8.50;99.90;;;;;;5032589;28;20413;-78
2022/05/22 00:29:13;;;;;;;0.60;0.60;;;8.40;99.90;;;;;;5033090;28;20045;-82
2022/05/22 00:31:39;;;;;;;0.70;0.70;;;8.40;99.90;;;;;;5040098;28;20545;-80
2022/05/22 00:34:05;;;;;;;0.60;0.60;;;8.40;99.90;;;;;;5060645;28;20045;-78
2022/05/22 00:36:31;;;;;;;0.60;0.60;;;8.30;99.90;;;;;;5051814;28;20439;-80
2022/05/22 00:38:57;;;;;;;;;;;8.30;99.90;;;;;;5049710;28;20044;-80
2022/05/22 00:41:23;;;;;;;0.60;0.60;;;8.30;99.90;;;;;;5060927;28;20023;-77
2022/05/22 00:43:51;;;;;;;0.60;0.60;;;8.30;99.90;;;;;;5061103;28;20052;-80
2022/05/22 00:46:19;;;;;;;0.60;0.60;;;8.30;99.90;;;;;;5060808;28;20040;-78
2022/05/22 00:48:48;;;;;;;0.60;0.60;;;8.30;99.90;;;;;;5052736;28;20057;-79
2022/05/22 00:51:23;;;;;;;0.60;0.60;;;8.30;99.90;;;;;;5051844;28;20051;-82
2022/05/22 00:53:54;;;;;;;0.50;0.50;;;8.30;99.90;;;;;;5063731;28;20079;-78
2022/05/22 00:56:27;;;;;;;0.50;0.50;;;8.20;99.90;;;;;;5053234;28;20064;-82
2022/05/22 00:58:56;;;;;;;0.60;0.60;;;8.20;99.90;;;;;;5049270;28;20082;-78
2022/05/22 01:01:22;;;;;;;0.75;0.75;;;8.20;99.90;;;;;;5044908;28;20048;-80
2022/05/22 01:03:48;;;;;;;0.60;0.60;;;8.20;99.90;;;;;;5048958;28;20052;-77
2022/05/22 01:06:24;;;;;;;;;;;8.20;99.90;;;;;;5061722;28;20068;-80
2022/05/22 01:08:50;;;;;;;0.63;0.63;;;8.10;99.90;;;;;;5040105;28;19920;-82
2022/05/22 01:11:28;;;;;;;0.50;0.50;;;8.10;99.90;;;;;;5053534;28;20486;-82
2022/05/22 01:14:02;;;;;;;0.50;0.50;;;8.10;99.90;;;;;;5061986;28;20052;-77
2022/05/22 01:16:28;;;;;;;0.50;0.50;;;8.10;99.90;;;;;;5052233;28;20679;-80
2022/05/22 01:18:56;;;;;;;0.57;0.57;;;8.00;99.90;;;;;;5066990;28;20067;-78
2022/05/22 01:21:31;;;;;;;0.60;0.60;;;8.00;99.90;;;;;;5038631;28;20071;-83
2022/05/22 01:23:58;;;;;;;0.55;0.55;;;7.90;99.90;;;;;;5058597;28;20233;-81
2022/05/22 01:26:26;;;;;;;0.60;0.60;;;7.90;99.90;;;;;;5034797;28;20041;-78
2022/05/22 01:28:52;;;;;;;0.60;0.60;;;7.90;99.90;;;;;;5059245;28;20094;-79
2022/05/22 01:31:18;;;;;;;0.70;0.70;;;7.90;99.90;;;;;;5041135;28;20052;-81
2022/05/22 01:33:44;;;;;;;0.50;0.50;;;7.90;99.90;;;;;;5052595;28;20045;-84
2022/05/22 01:36:11;;;;;;;0.40;0.40;;;8.10;99.90;;;;;;5043296;28;20052;-80
2022/05/22 01:38:38;;;;;;;;;;;8.00;99.90;;;;;;5032891;28;20042;-83
2022/05/22 01:41:04;;;;;;;0.60;0.60;;;8.00;99.90;;;;;;5052090;28;19966;-81
2022/05/22 01:43:31;;;;;;;0.60;0.60;;;7.90;99.90;;;;;;5033285;28;20592;-79
2022/05/22 01:45:57;;;;;;;0.60;0.60;;;7.90;99.90;;;;;;5053624;28;20124;-82
2022/05/22 01:48:23;;;;;;;;;;;7.90;99.90;;;;;;5057839;28;20053;-78
2022/05/22 01:50:49;;;;;;;0.82;0.82;;;7.90;99.90;;;;;;5049045;28;19932;-79
2022/05/22 01:53:15;;;;;;;;;;;8.00;99.90;;;;;;5053542;28;20106;-81
2022/05/22 01:55:42;;;;;;;0.57;0.57;;;8.00;99.90;;;;;;5051240;28;19927;-80
2022/05/22 01:58:08;;;;;;;0.68;0.68;;;7.80;99.90;;;;;;5046679;28;20040;-78
2022/05/22 02:00:34;;;;;;;;;;;7.80;99.90;;;;;;5067440;28;20048;-79
2022/05/22 02:03:01;;;;;;;0.60;0.60;;;7.70;99.90;;;;;;5037593;28;19924;-78
2022/05/22 02:05:27;;;;;;;0.50;0.50;;;7.70;99.90;;;;;;5064613;28;20040;-80
2022/05/22 02:10:38;;;;;;;0.60;0.60;;;7.80;99.90;;;;;;5061686;28;20041;-81
2022/05/22 02:13:05;;;;;;;0.50;0.50;;;7.70;99.90;;;;;;5052218;28;20045;-78
2022/05/22 02:15:31;;;;;;;0.50;0.50;;;7.70;99.90;;;;;;5037898;28;20041;-81
2022/05/22 02:17:57;;;;;;;1.27;1.17;;;7.60;99.90;;;;;;5047013;28;20055;-79
2022/05/22 02:20:23;;;;;;;0.68;0.68;;;7.70;99.90;;;;;;5047875;28;20321;-79
2022/05/22 02:22:50;;;;;;;;;;;7.60;99.90;;;;;;5058746;28;20401;-79
2022/05/22 02:25:19;;;;;;;0.68;0.68;;;7.60;99.90;;;;;;5063356;28;19916;-79
2022/05/22 02:27:45;;;;;;;0.70;0.70;;;7.60;99.90;;;;;;5057810;28;20119;-81
2022/05/22 02:30:14;;;;;;;0.60;0.60;;;7.60;99.90;;;;;;5066861;28;20472;-77
2022/05/22 02:32:40;;;;;;;0.60;0.60;;;7.60;99.90;;;;;;5054811;28;20048;-79
2022/05/22 02:35:08;;;;;;;0.63;0.63;;;7.50;99.90;;;;;;5042391;28;20041;-78
2022/05/22 02:38:00;;;;;;;0.55;0.55;;;7.60;99.90;;;;;;5051479;28;20048;-81
2022/05/22 02:40:28;;;;;;;0.60;0.60;;;7.60;99.90;;;;;;5042044;28;20120;-79
2022/05/22 02:42:54;;;;;;;0.60;0.60;;;7.60;99.90;;;;;;5044993;28;20041;-79
2022/05/22 02:45:23;;;;;;;0.60;0.60;;;7.60;99.90;;;;;;5045795;28;20103;-80
2022/05/22 02:47:50;;;;;;;0.50;0.50;;;7.60;99.90;;;;;;5051153;28;20052;-78
2022/05/22 02:50:19;;;;;;;1.20;1.10;;;7.60;99.90;;;;;;5050364;28;20049;-78
2022/05/22 02:52:45;;;;;;;0.60;0.60;;;7.60;99.90;;;;;;5071439;28;20119;-78
2022/05/22 02:55:11;;;;;;;1.48;0.82;;;7.70;99.90;;;;;;5024719;28;20526;-79
2022/05/22 02:57:40;;;;;;;0.50;0.50;;;7.60;99.90;;;;;;5045258;28;20671;-80
2022/05/22 03:00:14;;;;;;;0.60;0.60;;;7.70;99.90;;;;;;5060058;28;20047;-77
2022/05/22 03:02:39;;;;;;;0.60;0.60;;;7.60;99.90;;;;;;5041657;28;20127;-79
2022/05/22 03:05:05;;;;;;;0.50;0.50;;;7.60;99.90;;;;;;5058836;28;20087;-80
2022/05/22 03:07:34;;;;;;;;;;;7.60;99.90;;;;;;5027985;28;20142;-81
2022/05/22 03:10:00;;;;;;;0.47;0.47;;;7.60;99.90;;;;;;5048605;28;19917;-81
2022/05/22 03:12:25;;;;;;;0.60;0.60;;;7.60;99.90;;;;;;5049375;28;20052;-80
2022/05/22 03:14:57;;;;;;;0.70;0.70;;;7.60;99.90;;;;;;5037797;28;20429;-79
2022/05/22 03:17:24;;;;;;;0.60;0.60;;;7.50;99.90;;;;;;5040048;28;20044;-82
2022/05/22 03:19:50;;;;;;;0.70;0.70;;;7.60;99.90;;;;;;5056709;28;20585;-81
2022/05/22 03:22:16;;;;;;;0.68;0.68;;;7.60;99.90;;;;;;5053352;28;20057;-79
2022/05/22 03:24:42;;;;;;;;;;;7.50;99.90;;;;;;5032842;28;20049;-79
2022/05/22 03:27:11;;;;;;;0.60;0.60;;;7.50;99.90;;;;;;5053634;28;20254;-82
2022/05/22 03:29:37;;;;;;;0.52;0.52;;;7.50;99.90;;;;;;5028755;28;20106;-78
2022/05/22 03:32:05;;;;;;;0.57;0.57;;;7.40;99.90;;;;;;5034801;28;20453;-78
2022/05/22 03:34:31;;;;;;;1.08;0.88;;;7.40;99.90;;;;;;5034448;28;20393;-79
2022/05/22 03:36:59;;;;;;;0.63;0.63;;;7.40;99.90;;;;;;5033484;28;20128;-82
2022/05/22 03:39:25;;;;;;;0.60;0.60;;;7.40;99.90;;;;;;5045424;28;20045;-79
2022/05/22 03:41:51;;;;;;;0.70;0.70;;;7.40;99.90;;;;;;5027794;28;20041;-80
2022/05/22 03:44:17;;;;;;;0.52;0.52;;;7.50;99.90;;;;;;5033767;28;20106;-79
2022/05/22 03:46:44;;;;;;;0.60;0.60;;;7.40;99.90;;;;;;5049069;28;20439;-80
2022/05/22 03:49:10;;;;;;;0.60;0.60;;;7.40;99.90;;;;;;5052319;28;20069;-82
2022/05/22 03:51:36;;;;;;;0.60;0.60;;;7.40;99.90;;;;;;5060781;28;20037;-78
2022/05/22 03:54:02;;;;;;;0.60;0.60;;;7.40;99.90;;;;;;5057600;28;20041;-78
2022/05/22 03:56:28;;;;;;;0.55;0.55;;;7.40;99.90;;;;;;5050976;28;20106;-79
2022/05/22 03:58:53;;;;;;;0.50;0.50;;;7.40;99.90;;;;;;5046191;28;21331;-77
2022/05/22 04:01:19;;;;;;;0.50;0.50;;;7.40;99.90;;;;;;5049738;28;20486;-77
2022/05/22 04:03:45;;;;;;;0.60;0.60;;;7.50;99.90;;;;;;5051108;28;20124;-77
2022/05/22 04:06:12;;;;;;;0.60;0.60;;;7.50;99.90;;;;;;5054654;28;20040;-79
2022/05/22 04:08:38;;;;;;;0.50;0.50;;;7.50;99.90;;;;;;5037232;28;20120;-79
2022/05/22 04:11:10;;;;;;;0.50;0.50;;;7.60;99.90;;;;;;5045550;28;20147;-80
2022/05/22 04:13:36;;;;;;;0.60;0.60;;;7.60;99.90;;;;;;5046145;28;20046;-81
2022/05/22 04:16:03;;;;;;;0.65;0.65;;;7.70;99.90;;;;;;5061277;28;20041;-80
2022/05/22 04:18:28;;;;;;;0.77;0.77;;;7.80;99.90;;;;;;5054605;28;20520;-79
2022/05/22 04:20:56;;;;;;;0.50;0.50;;;8.00;99.90;;;;;;5062658;28;20052;-80
2022/05/22 04:26:07;;;;;;;0.60;0.60;;;8.20;99.90;;;;;;5053891;28;20410;-80
2022/05/22 04:28:33;;;;;;;0.50;0.50;;;8.30;99.90;;;;;;5056406;28;20084;-81
2022/05/22 04:30:58;;;;;;;;;;;8.40;99.90;;;;;;5065795;28;20498;-80
2022/05/22 04:33:25;;;;;;;0.60;0.60;;;8.50;99.90;;;;;;5057927;28;20034;-78
2022/05/22 04:35:52;;;;;;;0.47;0.47;;;8.60;99.90;;;;;;5063110;28;20041;-79
2022/05/22 04:38:18;;;;;;;0.70;0.70;;;8.80;99.90;;;;;;5075394;28;20128;-81
2022/05/22 04:40:52;;;;;;;;;;;8.90;99.90;;;;;;5057274;28;20075;-79
2022/05/22 04:43:18;;;;;;;0.50;0.50;;;9.00;99.90;;;;;;5053470;28;20384;-79
2022/05/22 04:45:43;;;;;;;0.50;0.50;;;9.00;99.90;;;;;;5042829;28;20041;-78
2022/05/22 04:48:09;;;;;;;0.60;0.60;;;9.50;99.90;;;;;;5074330;28;20049;-78
2022/05/22 04:50:35;;;;;;;0.47;0.47;;;9.20;99.90;;;;;;5037024;28;20044;-79
2022/05/22 04:53:01;;;;;;;0.57;0.57;;;9.30;99.90;;;;;;5058461;28;20068;-79
2022/05/22 04:55:26;;;;;;;0.50;0.50;;;9.30;99.90;;;;;;5081939;28;20041;-79
2022/05/22 04:57:52;;;;;;;0.50;0.50;;;9.40;99.90;;;;;;5071364;28;20044;-80
2022/05/22 05:00:18;;;;;;;0.47;0.47;;;9.50;99.90;;;;;;5066766;28;20596;-81
2022/05/22 05:02:44;;;;;;;0.70;0.70;;;9.60;99.90;;;;;;5058784;28;20116;-79
2022/05/22 05:05:10;;;;;;;0.45;0.45;;;9.60;99.90;;;;;;5052027;28;20512;-78
2022/05/22 05:07:40;;;;;;;0.50;0.50;;;9.70;99.90;;;;;;5062398;28;20044;-80
2022/05/22 05:10:08;;;;;;;0.57;0.57;;;9.80;99.90;;;;;;5037042;28;20033;-77
2022/05/22 05:12:39;;;;;;;0.60;0.60;;;9.90;99.90;;;;;;5045683;28;20053;-80
2022/05/22 05:15:06;;;;;;;0.50;0.50;;;10.00;99.90;;;;;;5062710;28;20043;-79
2022/05/22 05:17:33;;;;;;;0.50;0.50;;;10.00;99.90;;;;;;5039099;28;20056;-79
2022/05/22 05:19:58;;;;;;;;;;;10.10;99.90;;;;;;5054817;28;20086;-80
2022/05/22 05:22:25;;;;;;;0.40;0.40;;;10.20;99.90;;;;;;5058999;28;20369;-77
2022/05/22 05:24:50;;;;;;;0.60;0.60;;;10.30;99.90;;;;;;5034453;28;20033;-79
2022/05/22 05:27:16;;;;;;;1.00;0.88;;;10.50;99.90;;;;;;5064813;28;20039;-79
2022/05/22 05:29:42;;;;;;;0.70;0.70;;;10.60;99.90;;;;;;5065799;28;20048;-80
2022/05/22 05:32:08;;;;;;;0.60;0.60;;;10.60;99.90;;;;;;5020711;28;20513;-81
2022/05/22 05:34:34;;;;;;;0.52;0.52;;;10.80;99.90;;;;;;5048511;28;20486;-78
2022/05/22 05:36:59;;;;;;;;;;;10.90;99.90;;;;;;5059479;28;20045;-80
2022/05/22 05:39:27;;;;;;;0.50;0.50;;;10.90;99.90;;;;;;5038091;28;19927;-83
2022/05/22 05:41:56;;;;;;;0.50;0.50;;;11.00;99.90;;;;;;5058914;28;20401;-79
2022/05/22 05:44:22;;;;;;;0.40;0.40;;;11.10;99.90;;;;;;5056160;28;20048;-82
2022/05/22 05:46:48;;;;;;;0.60;0.60;;;11.10;99.90;;;;;;5060413;28;20044;-80
2022/05/22 05:49:14;;;;;;;0.77;0.77;;;11.20;99.90;;;;;;5038777;28;20128;-79
2022/05/22 05:51:41;;;;;;;0.73;0.73;;;11.30;99.90;;;;;;5045009;28;20041;-82
2022/05/22 05:54:06;;;;;;;0.50;0.50;;;11.40;99.90;;;;;;5047850;28;20041;-79
2022/05/22 05:56:36;;;;;;;1.10;1.10;;;11.40;99.90;;;;;;5047016;28;20040;-80
2022/05/22 05:59:01;;;;;;;0.50;0.50;;;11.50;99.90;;;;;;5047193;28;20394;-80
2022/05/22 06:01:27;;;;;;;0.63;0.63;;;11.50;99.90;;;;;;5013597;28;20049;-80
2022/05/22 06:03:53;;;;;;;1.55;1.48;;;11.60;99.90;;;;;;5031489;28;20052;-80
2022/05/22 06:06:20;;;;;;;0.60;0.60;;;11.70;99.90;;;;;;5045535;28;20063;-79
2022/05/22 06:08:47;;;;;;;0.40;0.40;;;11.80;99.90;;;;;;5067544;28;20052;-78
2022/05/22 06:11:12;;;;;;;0.50;0.50;;;11.90;99.90;;;;;;5029957;28;20085;-80
2022/05/22 06:13:41;;;;;;;1.08;1.08;;;12.00;99.90;;;;;;5027962;28;20073;-79
2022/05/22 06:16:11;;;;;;;0.50;0.50;;;12.10;99.90;;;;;;5051229;28;20033;-82
2022/05/22 06:18:37;;;;;;;0.50;0.50;;;12.20;99.90;;;;;;5033808;28;20056;-80
2022/05/22 06:21:11;;;;;;;0.60;0.60;;;12.30;99.90;;;;;;5046076;28;20053;-79
2022/05/22 06:23:38;;;;;;;1.60;1.50;;;12.40;99.90;;;;;;5054053;28;20048;-78
2022/05/22 06:26:08;;;;;;;0.50;0.50;;;12.40;99.90;;;;;;5043891;28;20091;-81
2022/05/22 06:28:34;;;;;;;0.50;0.50;;;12.50;99.90;;;;;;5056574;28;20507;-79
2022/05/22 06:31:01;;;;;;;0.57;0.57;;;12.60;99.90;;;;;;5050730;28;20134;-80
2022/05/22 06:33:27;;;;;;;0.40;0.40;;;12.80;99.90;;;;;;5031395;28;20033;-79
2022/05/22 06:35:54;;;;;;;0.85;0.85;;;12.90;99.90;;;;;;5033155;28;20288;-82
2022/05/22 06:41:06;;;;;;;0.70;0.70;;;13.10;99.90;;;;;;5050904;28;20052;-82
2022/05/22 06:43:32;;;;;;;1.50;1.02;;;13.20;99.90;;;;;;5034924;28;20049;-85
2022/05/22 06:45:58;;;;;;;0.50;0.50;;;13.30;99.90;;;;;;5034218;28;20056;-82
2022/05/22 06:48:24;;;;;;;0.88;0.88;;;13.40;99.90;;;;;;5039901;28;20111;-82
2022/05/22 06:50:51;;;;;;;0.40;0.40;;;13.40;99.90;;;;;;5064565;28;20047;-85
2022/05/22 06:53:18;;;;;;;0.43;0.43;;;13.50;99.90;;;;;;5037260;28;20040;-84
2022/05/22 06:55:43;;;;;;;0.50;0.50;;;13.60;99.90;;;;;;5056171;28;20040;-86
2022/05/22 06:58:09;;;;;;;0.50;0.50;;;13.70;99.90;;;;;;5058694;28;20385;-82
2022/05/22 07:00:36;;;;;;;0.50;0.50;;;13.80;99.90;;;;;;5049608;28;20485;-85
2022/05/22 07:03:04;;;;;;;1.40;0.98;;;13.90;99.90;;;;;;5035182;28;20041;-84
2022/05/22 07:05:48;;;;;;;0.45;0.45;;;14.00;99.90;;;;;;5001065;28;20248;-82
2022/05/22 07:08:14;;;;;;;0.40;0.40;;;14.20;99.90;;;;;;4993138;28;20050;-80
2022/05/22 07:13:24;;;;;;;0.93;0.93;;;14.40;99.90;;;;;;4966900;28;20519;-79
2022/05/22 07:16:02;;;;;;;0.50;0.50;;;14.40;99.90;;;;;;4943377;28;20060;-80
2022/05/22 07:18:34;;;;;;;1.75;1.65;;;14.50;99.90;;;;;;4991996;28;20060;-84
2022/05/22 07:21:00;;;;;;;0.55;0.55;;;15.20;99.90;;;;;;4975827;28;20069;-81
2022/05/22 07:23:27;;;;;;;;;;;14.60;99.90;;;;;;4989230;28;20411;-83
2022/05/22 07:25:53;;;;;;;0.63;0.63;;;14.60;99.90;;;;;;4980313;28;19968;-81
2022/05/22 07:28:19;;;;;;;0.40;0.40;;;14.70;99.90;;;;;;4993660;28;20064;-84
2022/05/22 07:30:49;;;;;;;0.63;0.63;;;14.80;99.90;;;;;;4989911;28;20076;-85
2022/05/22 07:33:16;;;;;;;0.45;0.45;;;14.90;99.90;;;;;;4977299;28;20118;-82
2022/05/22 07:35:53;;;;;;;0.50;0.50;;;15.00;99.90;;;;;;4999446;28;20038;-81
2022/05/22 07:38:18;;;;;;;0.73;0.73;;;15.00;99.90;;;;;;5031327;28;20110;-81
2022/05/22 07:40:44;;;;;;;;;;;15.00;99.90;;;;;;5041497;28;20032;-82
2022/05/22 07:43:10;;;;;;;0.85;0.85;;;15.10;99.90;;;;;;5071339;28;19924;-82
2022/05/22 07:45:35;;;;;;;0.30;0.30;;;15.20;99.90;;;;;;5040729;28;20509;-81
2022/05/22 07:48:01;;;;;;;0.40;0.40;;;15.30;99.90;;;;;;5005165;28;20054;-85
2022/05/22 07:51:03;;;;;;;0.45;0.45;;;15.40;99.90;;;;;;5044913;27;20427;-82
2022/05/22 07:53:31;;;;;;;0.30;0.30;;;15.50;99.90;;;;;;5044211;28;20045;-85
2022/05/22 07:55:57;;;;;;;0.40;0.40;;;15.50;99.90;;;;;;5010203;28;20129;-76
2022/05/22 07:58:25;;;;;;;2.13;2.03;;;15.60;99.90;;;;;;5025246;28;20120;-83
2022/05/22 08:00:52;;;;;;;0.30;0.30;;;15.80;99.90;;;;;;5007961;28;20395;-82
2022/05/22 08:03:19;;;;;;;0.40;0.40;;;16.00;99.90;;;;;;5024733;28;20037;-78
2022/05/22 08:05:46;;;;;;;0.43;0.43;;;16.20;99.90;;;;;;5037139;28;20148;-81
2022/05/22 08:08:12;;;;;;;0.40;0.40;;;16.40;99.90;;;;;;5023038;28;20240;-81
2022/05/22 08:10:41;;;;;;;2.08;1.27;;;16.70;99.90;;;;;;5009028;28;20107;-81
2022/05/22 08:13:09;;;;;;;0.40;0.40;;;16.80;99.90;;;;;;5025978;28;20050;-81
2022/05/22 08:15:37;;;;;;;0.60;0.60;;;16.70;99.90;;;;;;5024489;28;20713;-78
2022/05/22 08:18:03;;;;;;;0.40;0.40;;;16.50;99.90;;;;;;5028329;28;20081;-79
2022/05/22 08:20:33;;;;;;;0.32;0.32;;;16.30;99.90;;;;;;5026887;28;20053;-77
2022/05/22 08:23:03;;;;;;;0.93;0.93;;;16.20;99.90;;;;;;5028792;28;20427;-81
2022/05/22 08:25:30;;;;;;;0.40;0.40;;;16.20;99.90;;;;;;5030769;28;20081;-77
2022/05/22 08:27:57;;;;;;;0.30;0.30;;;16.20;99.90;;;;;;5021084;28;20395;-77
2022/05/22 08:30:26;;;;;;;0.40;0.40;;;16.20;99.90;;;;;;5008059;28;20049;-80
2022/05/22 08:32:52;;;;;;;0.95;0.60;;;16.40;99.90;;;;;;5024813;28;20048;-79
2022/05/22 08:35:25;;;;;;;0.63;0.63;;;16.70;99.90;;;;;;5011257;28;20121;-79
2022/05/22 08:37:51;;;;;;;0.60;0.60;;;16.90;99.90;;;;;;5014984;28;20064;-81
2022/05/22 08:40:18;;;;;;;;;;;17.00;99.90;;;;;;4992072;28;20046;-80
2022/05/22 08:43:02;;;;;;;0.30;0.30;;;16.90;99.90;;;;;;5024538;28;19921;-77
2022/05/22 08:45:43;;;;;;;0.35;0.35;;;16.80;99.90;;;;;;5022508;28;20045;-78
2022/05/22 08:48:43;;;;;;;0.40;0.40;;;16.90;99.90;;;;;;5032642;28;20050;-78
2022/05/22 08:51:17;;;;;;;0.82;0.82;;;17.00;99.90;;;;;;5019424;28;20143;-81
2022/05/22 08:53:58;;;;;;;0.32;0.32;;;17.10;99.90;;;;;;5021867;28;20096;-81
2022/05/22 08:59:23;;;;;;;0.40;0.40;;;17.40;99.90;;;;;;5017947;28;20068;-80
2022/05/22 09:02:26;;;;;;;0.40;0.40;;;17.50;99.90;;;;;;4988838;28;20049;-80
2022/05/22 09:05:07;;;;;;;0.60;0.60;;;17.60;99.90;;;;;;5012500;28;20161;-81
2022/05/22 09:08:01;;;;;;;0.38;0.38;;;17.70;99.90;;;;;;4998637;28;20050;-80
2022/05/22 09:11:05;;;;;;;0.52;0.52;;;17.40;99.90;;;;;;5002484;28;20042;-81
2022/05/22 09:13:45;;;;;;;0.30;0.30;;;17.30;99.90;;;;;;5010785;28;20041;-81
2022/05/22 09:16:33;;;;;;;0.50;0.50;;;17.10;99.90;;;;;;5008607;28;20041;-78
2022/05/22 09:19:04;;;;;;;0.57;0.57;;;17.00;99.90;;;;;;5028165;28;20053;-80
2022/05/22 09:22:04;;;;;;;0.38;0.38;;;16.80;99.90;;;;;;5011903;28;20037;-79
2022/05/22 09:24:57;;;;;;;0.52;0.52;;;16.90;99.90;;;;;;5002566;28;20049;-76
2022/05/22 09:27:25;;;;;;;0.30;0.30;;;17.30;99.90;;;;;;5005070;28;20590;-79
2022/05/22 09:30:00;;;;;;;0.50;0.50;;;17.80;99.90;;;;;;5005516;28;20454;-76
2022/05/22 09:32:30;;;;;;;2.55;1.38;;;18.00;99.90;;;;;;5011310;28;20450;-77
2022/05/22 09:35:13;;;;;;;0.30;0.30;;;18.20;99.90;;;;;;5008637;28;20068;-77
2022/05/22 09:37:59;;;;;;;0.47;0.47;;;18.20;99.90;;;;;;5010830;28;20103;-76
2022/05/22 09:40:37;;;;;;;0.40;0.40;;;18.30;99.90;;;;;;4992590;28;20042;-75
2022/05/22 09:43:24;;;;;;;0.30;0.30;;;18.60;99.90;;;;;;5009045;28;20112;-79
2022/05/22 09:45:56;;;;;;;;;;;18.90;99.90;;;;;;5007752;28;20052;-75
2022/05/22 09:49:05;;;;;;;0.40;0.40;;;19.20;99.90;;;;;;4990793;28;19944;-78
2022/05/22 09:51:48;;;;;;;0.40;0.40;;;19.40;99.90;;;;;;5003000;28;20392;-76
2022/05/22 09:54:13;;;;;;;0.73;0.73;;;19.40;99.90;;;;;;5013449;28;20126;-76
2022/05/22 09:56:54;;;;;;;;;;;19.50;99.90;;;;;;4993306;28;20270;-80
2022/05/22 09:59:44;;;;;;;0.35;0.35;;;19.40;99.90;;;;;;4985845;28;19922;-76
2022/05/22 10:02:24;;;;;;;0.40;0.40;;;19.50;99.90;;;;;;4999638;28;20050;-75
2022/05/22 10:05:14;;;;;;;0.73;0.73;;;19.60;99.90;;;;;;4991285;28;20042;-78
2022/05/22 10:07:53;;;;;;;0.38;0.38;;;19.70;99.90;;;;;;5006497;28;20045;-77
2022/05/22 10:10:40;;;;;;;0.30;0.30;;;20.00;99.90;;;;;;4989908;28;20103;-79
2022/05/22 10:13:33;;;;;;;0.30;0.30;;;20.20;99.90;;;;;;5007825;28;20046;-78
2022/05/22 10:16:29;;;;;;;0.40;0.40;;;20.10;99.90;;;;;;5005048;28;20073;-76
2022/05/22 10:19:29;;;;;;;0.40;0.40;;;20.20;99.90;;;;;;5008839;28;20049;-76
2022/05/22 10:22:21;;;;;;;0.30;0.30;;;20.10;99.90;;;;;;4995286;28;20046;-74
2022/05/22 10:25:08;;;;;;;0.30;0.30;;;20.10;99.90;;;;;;4977853;28;20038;-74
2022/05/22 10:27:51;;;;;;;0.30;0.30;;;20.10;99.90;;;;;;5009138;28;20429;-79
2022/05/22 10:30:31;;;;;;;0.30;0.30;;;20.00;99.90;;;;;;5007661;28;20399;-75
2022/05/22 10:33:29;;;;;;;0.43;0.43;;;19.80;99.90;;;;;;4995642;28;20113;-75
2022/05/22 10:36:12;;;;;;;0.30;0.30;;;19.60;99.90;;;;;;4983374;28;20038;-78
2022/05/22 10:38:50;;;;;;;0.30;0.30;;;19.50;99.90;;;;;;4995938;28;20115;-75
2022/05/22 10:44:12;;;;;;;0.30;0.30;;;19.40;99.90;;;;;;5007319;28;20046;-78
2022/05/22 10:46:50;;;;;;;0.40;0.40;;;19.50;99.90;;;;;;4996665;28;20041;-76
2022/05/22 10:49:17;;;;;;;0.30;0.30;;;19.50;99.90;;;;;;5005783;28;20077;-79
2022/05/22 10:51:58;;;;;;;0.30;0.30;;;19.60;99.90;;;;;;5008895;28;20046;-79
2022/05/22 10:54:29;;;;;;;0.30;0.30;;;19.80;99.90;;;;;;5006209;28;20038;-77
2022/05/22 10:57:06;;;;;;;0.30;0.30;;;20.10;99.90;;;;;;4983338;28;20042;-75
2022/05/22 10:59:32;;;;;;;0.30;0.30;;;20.40;99.90;;;;;;5014051;28;20103;-74
2022/05/22 11:02:00;;;;;;;0.30;0.30;;;20.40;99.90;;;;;;4998253;28;20420;-75
2022/05/22 11:04:37;;;;;;;0.47;0.47;;;20.50;99.90;;;;;;5011193;28;20041;-80
2022/05/22 11:07:04;;;;;;;0.30;0.30;;;20.60;99.90;;;;;;5002832;28;20061;-75
2022/05/22 11:09:51;;;;;;;0.30;0.30;;;20.70;99.40;;;;;;5003023;28;20108;-78
2022/05/22 11:12:26;;;;;;;0.30;0.30;;;20.80;99.90;;;;;;4983649;28;21335;-78
2022/05/22 11:15:04;;;;;;;0.30;0.30;;;20.90;99.40;;;;;;5026629;28;20396;-76
2022/05/22 11:17:30;;;;;;;0.30;0.30;;;21.10;94.40;;;;;;5009480;28;20044;-75
2022/05/22 11:20:01;;;;;;;0.30;0.30;;;21.10;99.10;;;;;;4997335;28;20113;-78
2022/05/22 11:22:31;;;;;;;0.40;0.40;;;21.00;95.40;;;;;;4993196;28;20038;-76
2022/05/22 11:25:42;;;;;;;0.38;0.38;;;20.70;99.90;;;;;;5003654;28;20523;-75
2022/05/22 11:28:19;;;;;;;0.30;0.30;;;20.60;99.90;;;;;;4988116;28;20046;-76
2022/05/22 11:31:38;;;;;;;0.30;0.30;;;20.50;99.90;;;;;;5016341;28;20122;-78
2022/05/22 11:34:12;;;;;;;0.30;0.30;;;20.50;99.90;;;;;;5002739;28;20046;-77
2022/05/22 11:37:16;;;;;;;0.30;0.30;;;20.60;99.20;;;;;;4998996;28;20035;-78
2022/05/22 11:40:00;;;;;;;0.40;0.40;;;20.80;99.90;;;;;;5008212;28;20049;-76
2022/05/22 11:42:38;;;;;;;0.43;0.43;;;20.90;99.90;;;;;;5010380;28;20130;-78
2022/05/22 11:45:38;;;;;;;0.30;0.30;;;20.70;98.60;;;;;;4998124;28;20049;-80
2022/05/22 11:48:27;;;;;;;0.50;0.50;;;20.60;99.90;;;;;;4980010;28;20108;-79
2022/05/22 11:51:18;;;;;;;0.30;0.30;;;20.40;99.90;;;;;;4990231;28;20207;-83
2022/05/22 11:54:21;;;;;;;0.40;0.40;;;20.20;99.70;;;;;;5008227;28;20038;-77
2022/05/22 11:57:05;;;;;;;0.40;0.40;;;20.20;99.90;;;;;;5008871;28;21021;-74
2022/05/22 12:00:08;;;;;;;0.20;0.20;;;20.30;99.30;;;;;;5000708;28;20042;-77
2022/05/22 12:02:43;;;;;;;0.30;0.30;;;20.20;99.90;;;;;;4978348;28;20499;-79
2022/05/22 12:05:43;;;;;;;0.60;0.60;;;20.20;99.90;;;;;;5004922;28;20064;-76
2022/05/22 12:08:49;;;;;;;0.30;0.30;;;20.40;99.90;;;;;;5009152;28;20064;-79
2022/05/22 12:11:38;;;;;;;0.30;0.30;;;20.40;99.90;;;;;;4990101;28;20045;-80
2022/05/22 12:14:21;;;;;;;0.30;0.30;;;20.50;99.70;;;;;;5002263;28;20038;-78
2022/05/22 12:17:18;;;;;;;0.35;0.35;;;19.60;99.80;;;;;;5006810;28;20040;-79
2022/05/22 12:19:49;;;;;;;0.30;0.30;;;20.60;98.10;;;;;;5005431;28;20057;-74
2022/05/22 12:23:07;;;;;;;0.30;0.30;;;20.60;97.60;;;;;;4992367;28;20046;-74
2022/05/22 12:25:20;;;;;;;0.30;0.30;;;20.70;97.20;;;;;;5007373;28;20052;-78
2022/05/22 12:27:47;;;;;;;0.32;0.32;;;21.30;98.30;;;;;;5010308;28;20050;-78
2022/05/22 12:30:22;;;;;;;0.20;0.20;;;21.70;99.90;;;;;;4980478;28;20561;-78
2022/05/22 12:32:56;;;;;;;0.40;0.40;;;21.90;99.90;;;;;;4990211;28;20046;-74
2022/05/22 12:35:24;;;;;;;0.30;0.30;;;22.10;90.40;;;;;;5005234;28;20096;-75
2022/05/22 12:38:10;;;;;;;0.20;0.20;;;21.90;95.20;;;;;;4995235;28;20061;-84
2022/05/22 12:40:48;;;;;;;0.45;0.45;;;22.10;99.90;;;;;;4994833;28;20055;-76
2022/05/22 12:43:19;;;;;;;0.20;0.20;;;22.30;96.70;;;;;;5010938;28;20064;-79
2022/05/22 12:45:53;;;;;;;0.20;0.20;;;22.40;93.30;;;;;;4994934;28;20076;-77
2022/05/22 12:48:34;;;;;;;0.25;0.25;;;22.30;95.10;;;;;;5012234;28;20045;-75
2022/05/22 12:51:21;;;;;;;0.30;0.30;;;22.20;92.30;;;;;;5025869;28;20069;-75
2022/05/22 12:53:50;;;;;;;0.22;0.22;;;22.10;95.70;;;;;;4998315;28;20400;-80
2022/05/22 12:56:38;;;;;;;0.30;0.30;;;22.20;96.30;;;;;;5010691;28;20080;-79
2022/05/22 12:59:25;;;;;;;0.20;0.20;;;22.50;95.90;;;;;;5008258;28;20050;-75
2022/05/22 13:01:56;;;;;;;2.00;0.82;;;22.80;95.90;;;;;;5008767;28;20042;-75
2022/05/22 13:04:25;;;;;;;0.25;0.20;;;23.00;93.00;;;;;;5010586;28;20054;-79
2022/05/22 13:07:11;;;;;;;0.20;0.20;;;23.00;91.20;;;;;;4994520;28;20041;-78
2022/05/22 13:09:51;;;;;;;0.20;0.20;;;23.10;99.90;;;;;;4992993;28;20041;-76
2022/05/22 13:12:34;;;;;;;0.20;0.20;;;23.20;99.90;;;;;;5012416;28;20033;-82
2022/05/22 13:15:26;;;;;;;0.20;0.20;;;23.40;97.70;;;;;;4983769;28;20038;-81
2022/05/22 13:18:16;;;;;;;0.10;0.10;;;23.70;85.60;;;;;;5023096;28;20037;-80
2022/05/22 13:20:48;;;;;;;0.10;0.10;;;23.90;91.50;;;;;;5012861;28;20076;-81
2022/05/22 13:23:44;;;;;;;0.10;0.10;;;24.20;92.70;;;;;;4997320;28;20069;-81
2022/05/22 13:26:30;;;;;;;0.10;0.10;;;24.70;89.30;;;;;;4976096;28;20122;-83
2022/05/22 13:29:20;;;;;;;0.10;0.10;;;25.00;87.60;;;;;;4998997;28;20451;-82
2022/05/22 13:31:54;;;;;;;0.10;0.10;;;25.00;99.90;;;;;;4995910;28;20041;-84
2022/05/22 13:34:26;;;;;;;0.13;0.13;;;25.00;82.20;;;;;;4994780;28;20081;-82
2022/05/22 13:36:57;;;;;;;0.20;0.20;;;25.00;78.30;;;;;;4997949;28;20037;-82
2022/05/22 13:39:28;;;;;;;0.20;0.20;;;25.10;89.00;;;;;;5010925;28;20081;-83
2022/05/22 13:42:11;;;;;;;0.20;0.20;;;25.00;84.40;;;;;;4998385;28;20125;-85